Time;durP1;ratioP1;P1;durP2;ratioP2;P2;SDS_P1;SDS_P2;PMS_P1;PMS_P2;Temp;Humidity;BMP_temperature;BMP_pressure;BME280_temperature;BME280_humidity;BME280_pressure;Samples;Min_cycle;Max_cycle;Signal;HPM_P1;HPM_P2
2023/05/14 00:01:30;;;;;;;24.52;17.42;;;;;;;10.57;100.00;101106.28;4924487;29;20043;-74
2023/05/14 00:03:56;;;;;;;27.13;18.52;;;;;;;10.57;100.00;101116.56;4924711;29;20477;-75
2023/05/14 00:06:21;;;;;;;28.20;18.63;;;;;;;10.56;100.00;101107.41;4937185;29;20028;-75
2023/05/14 00:08:46;;;;;;;32.95;20.88;;;;;;;10.52;100.00;101112.66;4934677;29;20481;-75
2023/05/14 00:11:12;;;;;;;26.95;18.52;;;;;;;10.54;100.00;101104.06;4941518;29;20046;-75
2023/05/14 00:13:37;;;;;;;27.60;18.75;;;;;;;10.53;100.00;101096.84;4941502;29;20393;-75
2023/05/14 00:16:03;;;;;;;28.83;17.60;;;;;;;10.52;100.00;101101.53;4923881;29;20032;-75
2023/05/14 00:18:28;;;;;;;25.55;18.85;;;;;;;10.57;100.00;101097.94;4941441;29;20032;-75
2023/05/14 00:20:54;;;;;;;28.23;17.45;;;;;;;10.54;100.00;101098.50;4924393;29;20036;-75
2023/05/14 00:23:20;;;;;;;26.67;18.50;;;;;;;10.55;100.00;101102.09;4924531;29;20082;-75
2023/05/14 00:25:46;;;;;;;26.88;18.73;;;;;;;10.55;100.00;101096.56;4941446;29;20043;-75
2023/05/14 00:28:11;;;;;;;25.42;18.58;;;;;;;10.52;100.00;101093.22;4908600;29;20031;-75
2023/05/14 00:30:38;;;;;;;24.98;17.30;;;;;;;10.52;100.00;101090.44;4893261;29;20027;-75
2023/05/14 00:33:04;;;;;;;21.70;16.02;;;;;;;10.50;100.00;101083.50;4939995;29;20043;-75
2023/05/14 00:35:29;;;;;;;25.23;17.23;;;;;;;10.52;100.00;101084.06;4923823;29;20485;-75
2023/05/14 00:37:55;;;;;;;28.88;17.52;;;;;;;10.51;100.00;101083.22;4941065;29;20040;-75
2023/05/14 00:40:24;;;;;;;23.70;15.90;;;;;;;10.46;100.00;101086.00;4921023;29;20477;-74
2023/05/14 00:42:49;;;;;;;20.30;15.38;;;;;;;10.46;100.00;101080.44;4920541;29;20086;-74
2023/05/14 00:45:15;;;;;;;26.42;18.73;;;;;;;10.42;100.00;101075.72;4936493;29;20039;-74
2023/05/14 00:47:40;;;;;;;30.98;19.08;;;;;;;10.37;100.00;101071.03;4920847;29;20028;-75
2023/05/14 00:50:06;;;;;;;23.70;16.63;;;;;;;10.37;100.00;101071.03;4904556;29;20052;-75
2023/05/14 00:52:32;;;;;;;31.90;21.05;;;;;;;10.26;100.00;101074.88;4916537;29;20039;-75
2023/05/14 00:54:57;;;;;;;26.05;19.00;;;;;;;10.28;100.00;101075.50;4923528;29;20044;-75
2023/05/14 00:57:23;;;;;;;26.05;16.67;;;;;;;10.25;100.00;101075.97;4939818;29;20184;-75
2023/05/14 00:59:48;;;;;;;23.83;16.88;;;;;;;10.22;100.00;101068.22;4923620;29;20040;-74
2023/05/14 01:02:14;;;;;;;23.23;16.73;;;;;;;10.20;100.00;101076.84;4939479;29;20051;-75
2023/05/14 01:04:39;;;;;;;24.30;17.25;;;;;;;10.19;100.00;101077.09;4908031;29;20046;-74
2023/05/14 01:07:20;;;;;;;29.52;18.73;;;;;;;10.17;100.00;101068.22;4939209;29;20027;-75
2023/05/14 01:10:07;;;;;;;31.70;20.83;;;;;;;10.05;100.00;101069.31;4923572;29;20035;-75
2023/05/14 01:12:45;;;;;;;35.15;22.63;;;;;;;10.11;100.00;101072.09;4936372;29;20032;-75
2023/05/14 01:15:16;;;;;;;34.90;21.70;;;;;;;10.07;100.00;101067.09;4932563;29;20154;-75
2023/05/14 01:17:45;;;;;;;35.92;20.73;;;;;;;10.10;100.00;101070.44;4939246;29;20171;-75
2023/05/14 01:20:10;;;;;;;29.10;19.95;;;;;;;10.09;100.00;101058.53;4923164;29;20438;-74
2023/05/14 01:22:36;;;;;;;28.33;19.88;;;;;;;10.15;100.00;101056.56;4923116;29;20083;-75
2023/05/14 01:25:02;;;;;;;32.30;22.10;;;;;;;10.14;100.00;101050.19;4939215;29;20032;-75
2023/05/14 01:27:37;;;;;;;34.35;24.02;;;;;;;10.15;100.00;101060.19;4906400;29;20030;-75
2023/05/14 01:30:15;;;;;;;36.22;23.65;;;;;;;10.19;100.00;101046.56;4897790;29;20032;-74
2023/05/14 01:32:40;;;;;;;35.67;23.85;;;;;;;10.24;100.00;101052.13;4939085;29;20051;-75
2023/05/14 01:35:06;;;;;;;38.38;27.65;;;;;;;10.28;100.00;101061.59;4938695;29;20262;-75
2023/05/14 01:37:31;;;;;;;40.58;25.92;;;;;;;10.35;100.00;101055.75;4922999;29;20042;-75
2023/05/14 01:39:57;;;;;;;49.08;32.33;;;;;;;10.38;100.00;101050.47;4922750;29;20028;-74
2023/05/14 01:42:23;;;;;;;47.55;32.40;;;;;;;10.43;100.00;101047.69;4935693;29;20024;-75
2023/05/14 01:44:48;;;;;;;49.78;31.95;;;;;;;10.48;100.00;101050.47;4921137;29;20366;-75
2023/05/14 01:47:14;;;;;;;50.10;32.63;;;;;;;10.56;100.00;101053.75;4922753;29;20043;-75
2023/05/14 01:49:39;;;;;;;50.90;32.10;;;;;;;10.59;100.00;101050.47;4938759;29;20043;-74
2023/05/14 01:52:07;;;;;;;48.33;32.50;;;;;;;10.63;100.00;101054.31;4922569;29;20039;-75
2023/05/14 01:54:32;;;;;;;55.50;34.22;;;;;;;10.67;100.00;101047.94;4922246;29;20114;-75
2023/05/14 01:56:58;;;;;;;55.35;33.08;;;;;;;10.71;100.00;101043.47;4906599;29;20089;-75
2023/05/14 01:59:23;;;;;;;55.60;34.88;;;;;;;10.76;100.00;101039.03;4938414;29;20489;-75
2023/05/14 02:01:49;;;;;;;52.28;32.35;;;;;;;10.80;100.00;101045.66;4922453;29;20059;-75
2023/05/14 02:04:14;;;;;;;62.72;38.17;;;;;;;10.82;100.00;101047.03;4938203;29;20039;-75
2023/05/14 02:06:40;;;;;;;59.53;36.28;;;;;;;10.86;100.00;101034.25;4938103;29;20047;-75
2023/05/14 02:09:05;;;;;;;53.00;35.35;;;;;;;10.90;100.00;101035.34;4922464;29;20040;-75
2023/05/14 02:11:31;;;;;;;63.10;37.00;;;;;;;10.89;100.00;101028.13;4939499;29;20031;-75
2023/05/14 02:13:56;;;;;;;61.03;39.03;;;;;;;10.93;100.00;101032.00;4922472;29;20023;-75
2023/05/14 02:16:22;;;;;;;63.83;39.35;;;;;;;10.99;100.00;101037.53;4922325;29;20032;-74
2023/05/14 02:18:47;;;;;;;61.65;38.35;;;;;;;11.01;100.00;101035.31;4922240;29;20039;-76
2023/05/14 02:21:13;;;;;;;59.55;35.72;;;;;;;11.00;100.00;101030.84;4922142;29;20044;-75
2023/05/14 02:23:38;;;;;;;61.78;38.58;;;;;;;11.04;100.00;101037.53;4939120;29;20489;-75
2023/05/14 02:26:04;;;;;;;70.45;43.00;;;;;;;11.03;100.00;101038.63;4938111;29;20068;-75
2023/05/14 02:28:29;;;;;;;55.88;34.72;;;;;;;11.08;100.00;101041.38;4922117;29;20038;-75
2023/05/14 02:31:00;;;;;;;60.53;38.05;;;;;;;11.08;100.00;101035.84;4937249;29;20039;-75
2023/05/14 02:33:26;;;;;;;58.00;35.42;;;;;;;11.11;100.00;101035.25;4918872;29;20024;-74
2023/05/14 02:35:52;;;;;;;60.83;37.38;;;;;;;11.10;100.00;101037.22;4937625;29;20027;-75
2023/05/14 02:38:17;;;;;;;61.22;37.50;;;;;;;11.15;100.00;101036.38;4905900;29;20035;-75
2023/05/14 02:40:43;;;;;;;58.85;35.35;;;;;;;11.16;100.00;101029.69;4934892;29;20036;-74
2023/05/14 02:43:08;;;;;;;65.47;40.60;;;;;;;11.12;100.00;101028.59;4934492;29;20040;-76
2023/05/14 02:45:34;;;;;;;71.70;41.20;;;;;;;11.13;100.00;101027.47;4937924;29;20036;-75
2023/05/14 02:48:00;;;;;;;68.45;39.75;;;;;;;11.16;100.00;101021.34;4921919;29;20039;-75
2023/05/14 02:50:25;;;;;;;69.95;40.78;;;;;;;11.18;100.00;101014.38;4939013;29;20042;-75
2023/05/14 02:52:51;;;;;;;58.30;38.85;;;;;;;11.16;100.00;101015.78;4937866;29;20094;-75
2023/05/14 02:55:16;;;;;;;71.68;42.38;;;;;;;11.15;100.00;101014.13;4921751;29;20121;-75
2023/05/14 02:57:41;;;;;;;66.43;41.67;;;;;;;11.15;100.00;101014.13;4938913;29;20114;-74
2023/05/14 03:00:08;;;;;;;70.30;42.05;;;;;;;11.18;100.00;101019.94;4938859;29;20028;-74
2023/05/14 03:02:34;;;;;;;66.85;41.47;;;;;;;11.17;100.00;101011.88;4936027;29;20118;-75
2023/05/14 03:05:00;;;;;;;70.70;41.85;;;;;;;11.21;100.00;101014.94;4937585;29;20071;-75
2023/05/14 03:07:25;;;;;;;72.45;42.40;;;;;;;11.19;100.00;101016.03;4937448;29;20063;-75
2023/05/14 03:09:51;;;;;;;60.33;37.67;;;;;;;11.21;100.00;101007.41;4934725;29;20036;-75
2023/05/14 03:12:17;;;;;;;66.43;41.58;;;;;;;11.21;100.00;101001.03;4936084;29;20036;-75
2023/05/14 03:14:43;;;;;;;69.03;43.67;;;;;;;11.18;100.00;101005.22;4921793;29;20102;-75
2023/05/14 03:17:08;;;;;;;76.80;44.78;;;;;;;11.18;100.00;101010.78;4906126;29;20063;-75
2023/05/14 03:19:34;;;;;;;62.75;39.85;;;;;;;11.19;100.00;101006.88;4937581;29;20103;-75
2023/05/14 03:21:59;;;;;;;71.43;45.20;;;;;;;11.18;100.00;101010.78;4921373;29;20031;-75
2023/05/14 03:24:25;;;;;;;68.63;41.90;;;;;;;11.21;100.00;101007.41;4921881;29;20035;-75
2023/05/14 03:26:50;;;;;;;71.38;41.70;;;;;;;11.20;100.00;101002.97;4906085;29;20044;-74
2023/05/14 03:29:16;;;;;;;74.22;45.00;;;;;;;11.19;100.00;101004.09;4937099;29;20065;-75
2023/05/14 03:31:42;;;;;;;59.42;39.00;;;;;;;11.19;100.00;101009.66;4936426;29;20028;-75
2023/05/14 03:34:08;;;;;;;72.93;45.85;;;;;;;11.22;100.00;101005.47;4921678;29;20078;-75
2023/05/14 03:36:35;;;;;;;76.10;47.03;;;;;;;11.20;100.00;100994.66;4921529;29;20099;-75
2023/05/14 03:39:00;;;;;;;71.75;45.10;;;;;;;11.22;100.00;100997.13;4938601;29;20020;-75
2023/05/14 03:41:26;;;;;;;69.82;42.78;;;;;;;11.22;100.00;100997.13;4921425;29;20079;-74
2023/05/14 03:43:51;;;;;;;69.88;43.28;;;;;;;11.22;100.00;100994.34;4938531;29;20044;-75
2023/05/14 03:46:17;;;;;;;66.72;42.03;;;;;;;11.19;100.00;100999.34;4938302;29;20090;-75
2023/05/14 03:48:42;;;;;;;66.55;42.55;;;;;;;11.22;100.00;100988.78;4921432;29;20036;-75
2023/05/14 03:51:08;;;;;;;62.25;40.38;;;;;;;11.21;100.00;100996.28;4940054;29;20412;-75
2023/05/14 03:53:33;;;;;;;79.25;48.15;;;;;;;11.17;100.00;101007.16;4940764;29;20039;-75
2023/05/14 03:55:59;;;;;;;72.03;42.85;;;;;;;11.18;100.00;101002.44;4924626;29;20047;-75
2023/05/14 03:58:24;;;;;;;77.32;45.67;;;;;;;11.18;100.00;100991.31;4941874;29;20032;-75
2023/05/14 04:00:50;;;;;;;63.53;41.03;;;;;;;11.23;100.00;100994.06;4924680;29;20087;-76
2023/05/14 04:03:15;;;;;;;74.93;42.53;;;;;;;11.22;100.00;101003.50;4924699;29;20028;-75
2023/05/14 04:05:41;;;;;;;74.55;45.63;;;;;;;11.21;100.00;100998.25;4908723;29;20039;-75
2023/05/14 04:08:06;;;;;;;71.40;43.17;;;;;;;11.22;100.00;100997.13;4940335;28;20504;-75
2023/05/14 04:10:32;;;;;;;64.10;39.38;;;;;;;11.21;100.00;100990.72;4941623;29;20036;-75
2023/05/14 04:12:57;;;;;;;81.18;45.15;;;;;;;11.17;100.00;100989.63;4940657;29;20425;-75
2023/05/14 04:15:23;;;;;;;72.97;45.25;;;;;;;11.21;100.00;100989.91;4940322;28;20031;-75
2023/05/14 04:17:48;;;;;;;71.55;43.08;;;;;;;11.23;100.00;100998.78;4908709;29;20020;-75
2023/05/14 04:20:14;;;;;;;71.13;43.42;;;;;;;11.22;100.00;100989.59;4941253;29;20051;-75
2023/05/14 04:22:39;;;;;;;68.05;41.10;;;;;;;11.24;100.00;101004.06;4941390;29;20087;-75
2023/05/14 04:25:05;;;;;;;64.80;39.95;;;;;;;11.23;100.00;101007.97;4941331;29;20028;-75
2023/05/14 04:27:32;;;;;;;74.10;43.17;;;;;;;11.24;100.00;100995.72;4924336;29;20118;-75
2023/05/14 04:29:57;;;;;;;67.72;40.50;;;;;;;11.27;100.00;100995.16;4924199;29;20090;-75
2023/05/14 04:32:23;;;;;;;72.65;42.15;;;;;;;11.27;100.00;100999.88;4923979;29;20031;-75
2023/05/14 04:34:48;;;;;;;67.40;39.90;;;;;;;11.26;100.00;100999.06;4941206;29;20047;-74
2023/05/14 04:37:14;;;;;;;67.78;41.35;;;;;;;11.26;100.00;100999.06;4940156;29;20032;-75
2023/05/14 04:39:40;;;;;;;79.20;46.50;;;;;;;11.24;100.00;101006.84;4941023;29;20051;-75
2023/05/14 04:42:05;;;;;;;74.68;44.33;;;;;;;11.23;100.00;101002.41;4923928;29;20039;-74
2023/05/14 04:44:36;;;;;;;86.43;50.13;;;;;;;11.21;100.00;101007.41;4923781;29;20032;-75
2023/05/14 04:47:02;;;;;;;74.32;43.58;;;;;;;11.22;100.00;101008.25;4924337;29;20165;-75
2023/05/14 04:49:27;;;;;;;72.18;44.15;;;;;;;11.17;100.00;101011.88;4939661;29;20058;-75
2023/05/14 04:51:53;;;;;;;68.22;41.55;;;;;;;11.17;100.00;101000.75;4936451;29;20111;-75
2023/05/14 04:54:18;;;;;;;75.97;45.67;;;;;;;11.15;100.00;101001.06;4917780;29;20039;-74
2023/05/14 04:56:44;;;;;;;67.22;42.15;;;;;;;11.14;100.00;101004.09;4936299;29;20079;-75
2023/05/14 04:59:09;;;;;;;77.43;45.63;;;;;;;11.04;100.00;101004.19;4904742;29;20047;-75
2023/05/14 05:01:35;;;;;;;72.40;43.85;;;;;;;11.05;100.00;101011.38;4921425;29;20032;-74
2023/05/14 05:04:01;;;;;;;80.82;46.90;;;;;;;11.01;100.00;101019.47;4933162;29;20029;-74
2023/05/14 05:06:26;;;;;;;73.35;43.88;;;;;;;11.04;100.00;101010.56;4935862;29;20493;-75
2023/05/14 05:08:51;;;;;;;72.10;41.90;;;;;;;11.06;100.00;101015.81;4936439;29;20469;-74
2023/05/14 05:11:17;;;;;;;79.15;45.67;;;;;;;11.02;100.00;101010.00;4936157;29;20032;-75
2023/05/14 05:13:42;;;;;;;70.25;42.65;;;;;;;11.06;100.00;101010.25;4920244;29;20028;-75
2023/05/14 05:16:08;;;;;;;80.15;46.03;;;;;;;11.01;100.00;101013.09;4921244;29;20039;-74
2023/05/14 05:18:33;;;;;;;70.07;42.33;;;;;;;11.03;100.00;101006.13;4932783;29;20037;-74
2023/05/14 05:20:59;;;;;;;77.90;44.08;;;;;;;11.04;100.00;101009.72;4920643;29;20039;-74
2023/05/14 05:23:25;;;;;;;86.88;46.42;;;;;;;10.92;100.00;101004.47;4921241;29;20470;-76
2023/05/14 05:25:50;;;;;;;77.68;44.85;;;;;;;10.95;100.00;101009.50;4935947;29;20047;-75
2023/05/14 05:28:15;;;;;;;85.90;46.92;;;;;;;10.91;100.00;101006.44;4920108;29;20043;-75
2023/05/14 05:30:43;;;;;;;83.22;48.28;;;;;;;10.94;100.00;101013.38;4934076;29;20405;-75
2023/05/14 05:33:09;;;;;;;82.00;45.55;;;;;;;10.95;100.00;101018.66;4919888;29;20103;-75
2023/05/14 05:35:34;;;;;;;90.45;47.70;;;;;;;10.93;100.00;101026.44;4919653;29;20039;-75
2023/05/14 05:38:00;;;;;;;80.80;45.05;;;;;;;10.97;100.00;101015.56;4919966;29;20036;-74
2023/05/14 05:40:25;;;;;;;92.35;47.75;;;;;;;10.96;100.00;101022.28;4932381;29;20028;-75
2023/05/14 05:42:51;;;;;;;92.35;45.28;;;;;;;10.93;100.00;101026.44;4913942;29;20032;-75
2023/05/14 05:45:16;;;;;;;80.35;43.97;;;;;;;10.94;100.00;101025.31;4919550;29;20028;-75
2023/05/14 05:47:42;;;;;;;71.95;40.00;;;;;;;11.02;100.00;101025.84;4919855;29;20100;-75
2023/05/14 05:50:08;;;;;;;91.90;44.30;;;;;;;10.95;100.00;101032.56;4920618;29;20500;-75
2023/05/14 05:52:34;;;;;;;82.55;43.45;;;;;;;11.04;100.00;101032.78;4920990;29;20234;-75
2023/05/14 05:54:59;;;;;;;85.93;45.25;;;;;;;11.02;100.00;101036.97;4937344;29;20043;-75
2023/05/14 05:57:26;;;;;;;82.75;42.40;;;;;;;11.04;100.00;101041.13;4922700;29;20027;-75
2023/05/14 05:59:51;;;;;;;77.05;41.88;;;;;;;11.06;100.00;101046.41;4938371;29;20032;-75
2023/05/14 06:02:18;;;;;;;75.70;40.90;;;;;;;11.12;100.00;101048.06;4939592;29;20322;-75
2023/05/14 06:04:43;;;;;;;77.22;39.95;;;;;;;11.15;100.00;101039.16;4922398;29;20058;-75
2023/05/14 06:07:09;;;;;;;73.10;39.50;;;;;;;11.17;100.00;101046.09;4934912;29;20036;-74
2023/05/14 06:09:34;;;;;;;77.20;42.28;;;;;;;11.19;100.00;101045.78;4938915;29;20044;-75
2023/05/14 06:12:00;;;;;;;75.68;40.28;;;;;;;11.22;100.00;101047.16;4922513;29;20044;-75
2023/05/14 06:14:25;;;;;;;86.13;44.97;;;;;;;11.23;100.00;101049.69;4921928;29;20496;-76
2023/05/14 06:16:50;;;;;;;77.53;40.58;;;;;;;11.29;100.00;101051.31;4922300;29;20039;-74
2023/05/14 06:19:16;;;;;;;65.07;35.95;;;;;;;11.36;100.00;101048.19;4938091;29;20035;-75
2023/05/14 06:21:42;;;;;;;66.40;36.10;;;;;;;11.41;100.00;101049.00;4922092;29;20035;-75
2023/05/14 06:24:07;;;;;;;71.22;37.55;;;;;;;11.46;100.00;101047.31;4938182;29;20031;-75
2023/05/14 06:26:33;;;;;;;70.80;38.55;;;;;;;11.50;100.00;101053.97;4937921;29;20028;-75
2023/05/14 06:28:58;;;;;;;87.30;44.00;;;;;;;11.48;100.00;101051.50;4922276;29;20095;-75
2023/05/14 06:31:25;;;;;;;81.15;41.10;;;;;;;11.53;100.00;101057.03;4922022;29;20035;-75
2023/05/14 06:33:50;;;;;;;69.50;37.38;;;;;;;11.57;100.00;101048.94;4934694;29;20056;-75
2023/05/14 06:36:16;;;;;;;68.93;35.65;;;;;;;11.62;100.00;101041.38;4903188;29;20024;-75
2023/05/14 06:38:41;;;;;;;82.78;42.00;;;;;;;11.59;100.00;101047.53;4937740;29;20032;-74
2023/05/14 06:41:06;;;;;;;79.80;41.22;;;;;;;11.61;100.00;101045.25;4939078;29;20032;-75
2023/05/14 06:43:32;;;;;;;77.25;39.65;;;;;;;11.68;100.00;101044.13;4934761;29;20059;-75
2023/05/14 06:45:57;;;;;;;79.00;41.33;;;;;;;11.70;100.00;101042.72;4931059;29;20039;-75
2023/05/14 06:48:23;;;;;;;68.93;37.75;;;;;;;11.74;100.00;101042.97;4939210;29;20549;-75
2023/05/14 06:50:49;;;;;;;76.55;39.28;;;;;;;11.77;100.00;101048.78;4938652;29;20426;-75
2023/05/14 06:53:14;;;;;;;76.38;40.22;;;;;;;11.78;100.00;101039.34;4922118;29;20526;-75
2023/05/14 06:55:40;;;;;;;75.50;38.50;;;;;;;11.86;100.00;101043.47;4937613;29;20052;-75
2023/05/14 06:58:06;;;;;;;74.90;37.38;;;;;;;11.91;100.00;101042.59;4906359;29;20110;-75
2023/05/14 07:00:31;;;;;;;70.95;37.45;;;;;;;11.95;100.00;101043.66;4922069;29;20032;-75
2023/05/14 07:02:57;;;;;;;68.75;36.78;;;;;;;12.02;100.00;101049.75;4937671;28;20032;-75
2023/05/14 07:05:23;;;;;;;70.57;36.22;;;;;;;12.07;100.00;101049.72;4921824;29;20089;-76
2023/05/14 07:07:49;;;;;;;72.43;38.78;;;;;;;12.13;100.00;101048.53;4921879;29;20059;-75
2023/05/14 07:10:14;;;;;;;63.97;35.60;;;;;;;12.18;100.00;101045.72;4922050;29;20031;-75
2023/05/14 07:12:39;;;;;;;69.35;36.63;;;;;;;12.24;100.00;101047.34;4937778;29;20079;-75
2023/05/14 07:15:06;;;;;;;61.55;35.13;;;;;;;12.33;100.00;101049.50;4890407;29;20046;-75
2023/05/14 07:17:31;;;;;;;70.47;36.92;;;;;;;12.38;100.00;101044.69;4906099;29;20091;-75
2023/05/14 07:19:57;;;;;;;69.03;35.97;;;;;;;12.43;100.00;101043.84;4937263;29;20035;-75
2023/05/14 07:22:22;;;;;;;66.57;35.85;;;;;;;12.52;100.00;101042.06;4937400;29;20032;-75
2023/05/14 07:24:48;;;;;;;71.65;37.72;;;;;;;12.55;100.00;101035.91;4938810;29;20032;-75
2023/05/14 07:27:15;;;;;;;59.67;33.20;;;;;;;12.63;100.00;101037.22;4940921;29;20031;-75
2023/05/14 07:29:41;;;;;;;68.43;36.88;;;;;;;12.68;100.00;101035.19;4940948;29;20062;-75
2023/05/14 07:32:06;;;;;;;66.22;36.03;;;;;;;12.79;100.00;101040.63;4924110;29;20027;-75
2023/05/14 07:34:32;;;;;;;68.38;36.67;;;;;;;12.84;100.00;101037.81;4942086;29;20031;-75
2023/05/14 07:36:57;;;;;;;62.22;33.72;;;;;;;12.95;100.00;101042.13;4941143;29;20032;-75
2023/05/14 07:39:23;;;;;;;57.17;32.70;;;;;;;12.98;100.00;101038.75;4942011;29;20039;-75
2023/05/14 07:41:49;;;;;;;58.67;32.13;;;;;;;13.07;100.00;101034.19;4940706;29;20036;-75
2023/05/14 07:44:14;;;;;;;66.25;35.60;;;;;;;13.09;100.00;101031.94;4942116;29;20043;-76
2023/05/14 07:46:40;;;;;;;58.45;33.00;;;;;;;13.18;100.00;101037.69;4925126;29;20031;-75
2023/05/14 07:49:05;;;;;;;66.53;33.90;;;;;;;13.21;100.00;101036.25;4925162;29;20035;-76
2023/05/14 07:51:32;;;;;;;55.17;32.08;;;;;;;13.27;100.00;101040.66;4941718;29;20492;-75
2023/05/14 07:53:57;;;;;;;61.30;33.47;;;;;;;13.30;100.00;101040.06;4941733;29;20032;-75
2023/05/14 07:56:23;;;;;;;52.55;30.00;;;;;;;13.36;100.00;101038.84;4924111;29;20107;-75
2023/05/14 07:58:49;;;;;;;58.05;33.03;;;;;;;13.46;100.00;101049.06;4922899;29;20040;-75
2023/05/14 08:01:15;;;;;;;53.75;30.67;;;;;;;13.51;100.00;101040.59;4937520;29;20092;-75
2023/05/14 08:03:40;;;;;;;57.95;29.90;;;;;;;13.62;100.00;101045.75;4922610;29;20437;-75
2023/05/14 08:06:06;;;;;;;56.53;31.52;;;;;;;13.74;100.00;101050.03;4922417;29;20081;-75
2023/05/14 08:08:31;;;;;;;57.55;33.35;;;;;;;13.86;100.00;101053.19;4937273;29;20036;-75
2023/05/14 08:10:57;;;;;;;53.22;31.52;;;;;;;13.94;100.00;101054.47;4921535;29;20029;-76
2023/05/14 08:13:22;;;;;;;52.67;31.67;;;;;;;14.04;100.00;101055.16;4937244;29;20500;-75
2023/05/14 08:15:48;;;;;;;53.92;31.27;;;;;;;14.13;100.00;101057.25;4921115;29;20088;-75
2023/05/14 08:18:13;;;;;;;46.20;29.02;;;;;;;14.22;100.00;101061.81;4922498;29;20370;-75
2023/05/14 08:20:39;;;;;;;53.00;30.83;;;;;;;14.26;100.00;101064.81;4922227;29;20028;-75
2023/05/14 08:23:06;;;;;;;46.00;28.35;;;;;;;14.32;100.00;101060.84;4922369;29;20032;-75
2023/05/14 08:25:31;;;;;;;44.13;26.42;;;;;;;14.40;100.00;101054.53;4921200;29;20482;-74
2023/05/14 08:27:58;;;;;;;46.22;27.80;;;;;;;14.50;100.00;101065.53;4936988;29;20059;-75
2023/05/14 08:30:24;;;;;;;50.33;28.75;;;;;;;14.55;100.00;101061.03;4908270;29;20505;-75
2023/05/14 08:32:50;;;;;;;42.70;26.35;;;;;;;14.63;100.00;101057.53;4921296;29;20032;-75
2023/05/14 08:35:16;;;;;;;43.13;26.77;;;;;;;14.71;100.00;101052.03;4936816;29;20111;-75
2023/05/14 08:37:41;;;;;;;43.88;25.17;;;;;;;14.80;100.00;101052.16;4910901;29;20036;-75
2023/05/14 08:40:08;;;;;;;46.15;28.17;;;;;;;14.86;100.00;101048.09;4936139;28;20393;-75
2023/05/14 08:42:33;;;;;;;44.58;28.10;;;;;;;14.95;100.00;101039.81;4921966;29;20039;-75
2023/05/14 08:45:02;;;;;;;51.47;30.15;;;;;;;15.02;100.00;101045.03;4935831;29;20529;-76
2023/05/14 08:47:29;;;;;;;44.95;26.40;;;;;;;15.15;100.00;101044.97;4922136;29;20471;-75
2023/05/14 08:50:03;;;;;;;45.75;28.15;;;;;;;15.28;100.00;101034.94;4936403;29;20109;-75
2023/05/14 08:52:28;;;;;;;44.45;28.70;;;;;;;15.37;100.00;101032.22;4920790;29;20437;-75
2023/05/14 08:54:54;;;;;;;42.30;25.20;;;;;;;15.50;100.00;101041.75;4921758;29;20066;-75
2023/05/14 08:57:20;;;;;;;47.55;28.67;;;;;;;15.54;100.00;101034.38;4923764;29;20035;-75
2023/05/14 08:59:46;;;;;;;42.38;26.08;;;;;;;15.66;100.00;101037.47;4939489;29;20039;-75
2023/05/14 09:02:11;;;;;;;39.42;24.67;;;;;;;15.78;100.00;101034.13;4923836;29;20027;-75
2023/05/14 09:04:37;;;;;;;41.55;25.27;;;;;;;15.86;100.00;101031.41;4923530;29;20027;-75
2023/05/14 09:07:02;;;;;;;44.50;27.85;;;;;;;15.95;100.00;101030.63;4923648;29;20034;-76
2023/05/14 09:09:28;;;;;;;40.95;26.45;;;;;;;16.02;100.00;101029.06;4940561;29;20103;-75
2023/05/14 09:11:53;;;;;;;41.75;26.98;;;;;;;16.14;100.00;101027.66;4923330;29;20039;-76
2023/05/14 09:14:19;;;;;;;42.92;26.98;;;;;;;16.26;100.00;101034.31;4923282;29;20024;-75
2023/05/14 09:16:46;;;;;;;40.22;26.30;;;;;;;16.38;100.00;101030.09;4940254;29;20039;-76
2023/05/14 09:19:12;;;;;;;38.50;25.20;;;;;;;16.49;100.00;101031.47;4907364;29;20032;-75
2023/05/14 09:21:38;;;;;;;40.15;26.00;;;;;;;16.58;100.00;101028.75;4923182;29;20041;-75
2023/05/14 09:24:03;;;;;;;39.60;26.52;;;;;;;16.70;100.00;101026.97;4939061;29;20157;-76
2023/05/14 09:26:30;;;;;;;39.30;26.67;;;;;;;16.79;100.00;101035.47;4940303;29;20114;-75
2023/05/14 09:28:56;;;;;;;40.45;26.15;;;;;;;16.91;100.00;101032.03;4935723;29;20036;-76
2023/05/14 09:31:22;;;;;;;41.42;25.85;;;;;;;17.03;100.00;101025.81;4935949;29;20039;-76
2023/05/14 09:33:51;;;;;;;40.65;26.23;;;;;;;17.06;100.00;101027.97;4919910;29;20027;-76
2023/05/14 09:36:16;;;;;;;39.47;24.23;;;;;;;17.24;100.00;101028.84;4935478;29;20040;-76
2023/05/14 09:38:42;;;;;;;37.55;22.75;;;;;;;17.35;100.00;101024.56;4936473;29;20500;-75
2023/05/14 09:41:07;;;;;;;31.77;21.98;;;;;;;17.47;100.00;101021.97;4940000;29;20408;-76
2023/05/14 09:43:32;;;;;;;37.60;24.67;;;;;;;17.54;100.00;101021.47;4935693;29;20040;-75
2023/05/14 09:45:58;;;;;;;36.47;24.33;;;;;;;17.60;100.00;101023.78;4931335;29;20032;-76
2023/05/14 09:48:24;;;;;;;37.45;24.00;;;;;;;17.64;100.00;101021.16;4937735;29;20039;-76
2023/05/14 09:50:50;;;;;;;32.53;21.45;;;;;;;17.72;100.00;101020.34;4939552;29;20469;-76
2023/05/14 09:53:16;;;;;;;35.42;23.55;;;;;;;17.78;100.00;101035.03;4939946;29;20036;-76
2023/05/14 09:55:42;;;;;;;32.90;22.92;;;;;;;17.88;100.00;101033.91;4938451;29;20054;-76
2023/05/14 09:58:08;;;;;;;35.90;24.42;;;;;;;17.97;100.00;101032.75;4922931;29;20047;-76
2023/05/14 10:00:34;;;;;;;32.08;21.63;;;;;;;18.11;100.00;101029.78;4938436;29;20051;-76
2023/05/14 10:03:04;;;;;;;32.92;23.00;;;;;;;18.21;100.00;101028.59;4922522;29;20028;-76
2023/05/14 10:05:32;;;;;;;30.45;19.58;;;;;;;18.35;100.00;101029.22;4922702;29;20035;-76
2023/05/14 10:07:58;;;;;;;34.60;22.52;;;;;;;18.40;100.00;101034.66;4922499;29;20040;-76
2023/05/14 10:10:25;;;;;;;29.50;20.38;;;;;;;18.47;100.00;101035.00;4906969;29;20388;-76
2023/05/14 10:12:55;;;;;;;32.53;22.33;;;;;;;18.48;100.00;101035.81;4922368;29;20393;-76
2023/05/14 10:15:48;;;;;;;31.27;22.60;;;;;;;18.46;100.00;101036.13;4937652;29;20038;-76
2023/05/14 10:18:16;;;;;;;29.87;21.43;;;;;;;18.60;100.00;101032.28;4920505;29;20445;-76
2023/05/14 10:20:42;;;;;;;34.60;22.55;;;;;;;18.66;100.00;101028.13;4938050;29;20028;-75
2023/05/14 10:23:07;;;;;;;30.88;20.75;;;;;;;18.68;100.00;101020.19;4906442;29;20046;-76
2023/05/14 10:25:34;;;;;;;32.22;21.33;;;;;;;18.77;100.00;101023.00;4922263;29;20042;-76
2023/05/14 10:27:59;;;;;;;26.60;18.08;;;;;;;18.92;100.00;101020.47;4938019;29;20027;-76
2023/05/14 10:30:25;;;;;;;25.10;18.20;;;;;;;19.02;100.00;101013.59;4939039;29;20057;-76
2023/05/14 10:33:14;;;;;;;27.48;18.88;;;;;;;19.13;100.00;101009.25;4922265;29;20036;-76
2023/05/14 10:36:04;;;;;;;27.70;20.25;;;;;;;19.28;100.00;101004.19;4938295;29;20044;-77
2023/05/14 10:38:36;;;;;;;27.17;18.80;;;;;;;19.42;100.00;101005.59;4919279;29;20032;-76
2023/05/14 10:41:03;;;;;;;29.10;18.70;;;;;;;19.54;100.00;101002.03;4930692;29;20114;-76
2023/05/14 10:43:29;;;;;;;27.27;18.15;;;;;;;19.67;100.00;101000.13;4922020;29;20323;-76
2023/05/14 10:45:58;;;;;;;25.75;17.90;;;;;;;19.81;100.00;101000.69;4905966;29;20439;-76
2023/05/14 10:48:23;;;;;;;26.67;18.25;;;;;;;19.96;100.00;100992.75;4906426;29;20110;-76
2023/05/14 10:50:52;;;;;;;25.25;17.48;;;;;;;20.07;100.00;100989.16;4921666;29;20027;-76
2023/05/14 10:53:18;;;;;;;19.95;14.32;;;;;;;20.22;100.00;100990.47;4921985;29;20043;-76
2023/05/14 10:55:43;;;;;;;20.23;12.68;;;;;;;20.40;100.00;100984.66;4937698;29;20056;-76
2023/05/14 10:58:09;;;;;;;21.98;14.98;;;;;;;20.57;100.00;100981.66;4937651;29;20032;-76